sensor_id;sensor_type;location;lat;lon;timestamp;pressure;altitude;pressure_sealevel;temperature;humidity
31911;BME280;18457;52.432;16.914;2022-11-27T00:01:59;101901.06;;;5.65;100.00
31911;BME280;18457;52.432;16.914;2022-11-27T00:04:31;101904.70;;;5.59;100.00
31911;BME280;18457;52.432;16.914;2022-11-27T00:07:03;101902.40;;;5.60;100.00
31911;BME280;18457;52.432;16.914;2022-11-27T00:09:34;101903.98;;;5.67;100.00
31911;BME280;18457;52.432;16.914;2022-11-27T00:12:08;101903.33;;;5.53;100.00
31911;BME280;18457;52.432;16.914;2022-11-27T00:14:39;101901.27;;;5.39;100.00
31911;BME280;18457;52.432;16.914;2022-11-27T00:17:11;101902.13;;;5.47;100.00
31911;BME280;18457;52.432;16.914;2022-11-27T00:19:43;101896.38;;;5.55;100.00
31911;BME280;18457;52.432;16.914;2022-11-27T00:22:15;101892.58;;;5.62;100.00
31911;BME280;18457;52.432;16.914;2022-11-27T00:24:46;101891.77;;;5.66;100.00
31911;BME280;18457;52.432;16.914;2022-11-27T00:27:18;101893.67;;;5.72;100.00
31911;BME280;18457;52.432;16.914;2022-11-27T00:29:50;101889.60;;;5.74;100.00
31911;BME280;18457;52.432;16.914;2022-11-27T00:32:22;101889.21;;;5.55;100.00
31911;BME280;18457;52.432;16.914;2022-11-27T00:34:54;101891.08;;;5.41;100.00
31911;BME280;18457;52.432;16.914;2022-11-27T00:37:26;101890.09;;;5.45;100.00
31911;BME280;18457;52.432;16.914;2022-11-27T00:39:58;101893.44;;;5.51;100.00
31911;BME280;18457;52.432;16.914;2022-11-27T00:42:29;101892.43;;;5.63;100.00
31911;BME280;18457;52.432;16.914;2022-11-27T00:45:01;101899.21;;;5.61;100.00
31911;BME280;18457;52.432;16.914;2022-11-27T00:47:33;101899.79;;;5.55;100.00
31911;BME280;18457;52.432;16.914;2022-11-27T00:50:07;101897.81;;;5.63;100.00
31911;BME280;18457;52.432;16.914;2022-11-27T00:52:39;101894.86;;;5.68;100.00
31911;BME280;18457;52.432;16.914;2022-11-27T00:55:12;101894.48;;;5.50;100.00
31911;BME280;18457;52.432;16.914;2022-11-27T00:57:44;101896.23;;;5.47;100.00
31911;BME280;18457;52.432;16.914;2022-11-27T01:00:18;101903.90;;;5.46;100.00
31911;BME280;18457;52.432;16.914;2022-11-27T01:02:49;101904.70;;;5.41;100.00
31911;BME280;18457;52.432;16.914;2022-11-27T01:05:21;101905.40;;;5.40;100.00
31911;BME280;18457;52.432;16.914;2022-11-27T01:07:53;101899.52;;;5.50;100.00
31911;BME280;18457;52.432;16.914;2022-11-27T01:10:25;101901.52;;;5.61;100.00
31911;BME280;18457;52.432;16.914;2022-11-27T01:12:57;101902.35;;;5.66;100.00
31911;BME280;18457;52.432;16.914;2022-11-27T01:15:28;101897.96;;;5.71;100.00
31911;BME280;18457;52.432;16.914;2022-11-27T01:18:00;101899.08;;;5.72;100.00
31911;BME280;18457;52.432;16.914;2022-11-27T01:20:32;101900.73;;;5.56;100.00
31911;BME280;18457;52.432;16.914;2022-11-27T01:23:04;101901.33;;;5.51;100.00
31911;BME280;18457;52.432;16.914;2022-11-27T01:25:36;101898.90;;;5.64;100.00
31911;BME280;18457;52.432;16.914;2022-11-27T01:28:11;101896.73;;;5.73;100.00
31911;BME280;18457;52.432;16.914;2022-11-27T01:30:46;101899.04;;;5.71;100.00
31911;BME280;18457;52.432;16.914;2022-11-27T01:33:18;101902.30;;;5.73;100.00
31911;BME280;18457;52.432;16.914;2022-11-27T01:35:55;101905.29;;;5.78;100.00
31911;BME280;18457;52.432;16.914;2022-11-27T01:38:28;101903.89;;;5.80;100.00
31911;BME280;18457;52.432;16.914;2022-11-27T01:41:02;101898.69;;;5.81;100.00
31911;BME280;18457;52.432;16.914;2022-11-27T01:43:39;101896.09;;;5.83;100.00
31911;BME280;18457;52.432;16.914;2022-11-27T01:46:32;101888.55;;;5.84;100.00
31911;BME280;18457;52.432;16.914;2022-11-27T01:49:20;101887.34;;;5.85;100.00
31911;BME280;18457;52.432;16.914;2022-11-27T01:51:55;101893.64;;;5.87;100.00
31911;BME280;18457;52.432;16.914;2022-11-27T01:54:30;101896.92;;;5.89;100.00
31911;BME280;18457;52.432;16.914;2022-11-27T01:57:07;101895.13;;;5.89;100.00
31911;BME280;18457;52.432;16.914;2022-11-27T01:59:41;101892.27;;;5.89;100.00
31911;BME280;18457;52.432;16.914;2022-11-27T02:02:13;101897.50;;;5.91;100.00
31911;BME280;18457;52.432;16.914;2022-11-27T02:04:45;101895.14;;;5.89;100.00
31911;BME280;18457;52.432;16.914;2022-11-27T02:07:16;101895.54;;;5.92;100.00
31911;BME280;18457;52.432;16.914;2022-11-27T02:09:48;101894.96;;;5.90;100.00
31911;BME280;18457;52.432;16.914;2022-11-27T02:12:23;101896.20;;;5.89;100.00
31911;BME280;18457;52.432;16.914;2022-11-27T02:15:03;101894.96;;;5.64;100.00
31911;BME280;18457;52.432;16.914;2022-11-27T02:17:42;101898.65;;;5.60;100.00
31911;BME280;18457;52.432;16.914;2022-11-27T02:20:32;101901.23;;;5.73;100.00
31911;BME280;18457;52.432;16.914;2022-11-27T02:23:35;101902.02;;;5.59;100.00
31911;BME280;18457;52.432;16.914;2022-11-27T02:26:28;101901.06;;;5.56;100.00
31911;BME280;18457;52.432;16.914;2022-11-27T02:29:08;101901.79;;;5.56;100.00
31911;BME280;18457;52.432;16.914;2022-11-27T02:31:48;101902.07;;;5.61;100.00
31911;BME280;18457;52.432;16.914;2022-11-27T02:34:26;101898.30;;;5.70;100.00
31911;BME280;18457;52.432;16.914;2022-11-27T02:37:10;101898.35;;;5.73;100.00
31911;BME280;18457;52.432;16.914;2022-11-27T02:39:48;101890.59;;;5.79;100.00
31911;BME280;18457;52.432;16.914;2022-11-27T02:42:23;101890.02;;;5.77;100.00
31911;BME280;18457;52.432;16.914;2022-11-27T02:44:59;101887.55;;;5.79;100.00
31911;BME280;18457;52.432;16.914;2022-11-27T02:47:32;101886.86;;;5.80;100.00
31911;BME280;18457;52.432;16.914;2022-11-27T02:50:07;101891.27;;;5.85;100.00
31911;BME280;18457;52.432;16.914;2022-11-27T02:52:41;101885.23;;;5.87;100.00
31911;BME280;18457;52.432;16.914;2022-11-27T02:55:17;101884.99;;;5.85;100.00
31911;BME280;18457;52.432;16.914;2022-11-27T02:57:54;101882.15;;;5.78;100.00
31911;BME280;18457;52.432;16.914;2022-11-27T03:00:26;101879.27;;;5.85;100.00
31911;BME280;18457;52.432;16.914;2022-11-27T03:02:59;101880.74;;;5.87;100.00
31911;BME280;18457;52.432;16.914;2022-11-27T03:05:34;101880.61;;;5.89;100.00
31911;BME280;18457;52.432;16.914;2022-11-27T03:08:19;101884.24;;;5.92;100.00
31911;BME280;18457;52.432;16.914;2022-11-27T03:10:59;101891.75;;;5.90;100.00
31911;BME280;18457;52.432;16.914;2022-11-27T03:13:34;101889.63;;;5.92;100.00
31911;BME280;18457;52.432;16.914;2022-11-27T03:16:13;101891.81;;;5.94;100.00
31911;BME280;18457;52.432;16.914;2022-11-27T03:18:54;101887.88;;;5.95;100.00
31911;BME280;18457;52.432;16.914;2022-11-27T03:21:31;101883.23;;;5.95;100.00
31911;BME280;18457;52.432;16.914;2022-11-27T03:24:05;101882.54;;;5.97;100.00
31911;BME280;18457;52.432;16.914;2022-11-27T03:26:40;101887.37;;;5.96;100.00
31911;BME280;18457;52.432;16.914;2022-11-27T03:29:16;101881.72;;;5.91;100.00
31911;BME280;18457;52.432;16.914;2022-11-27T03:31:48;101880.34;;;5.95;100.00
31911;BME280;18457;52.432;16.914;2022-11-27T03:34:20;101882.85;;;5.94;100.00
31911;BME280;18457;52.432;16.914;2022-11-27T03:36:52;101877.65;;;5.94;100.00
31911;BME280;18457;52.432;16.914;2022-11-27T03:39:25;101873.14;;;5.93;100.00
31911;BME280;18457;52.432;16.914;2022-11-27T03:42:04;101867.48;;;5.97;100.00
31911;BME280;18457;52.432;16.914;2022-11-27T03:44:43;101862.52;;;6.00;100.00
31911;BME280;18457;52.432;16.914;2022-11-27T03:47:23;101856.05;;;6.00;100.00
31911;BME280;18457;52.432;16.914;2022-11-27T03:50:07;101846.86;;;5.98;100.00
31911;BME280;18457;52.432;16.914;2022-11-27T03:52:50;101847.61;;;6.00;100.00
31911;BME280;18457;52.432;16.914;2022-11-27T03:55:30;101849.88;;;6.05;100.00
31911;BME280;18457;52.432;16.914;2022-11-27T03:58:08;101852.18;;;6.04;100.00
31911;BME280;18457;52.432;16.914;2022-11-27T04:00:43;101848.95;;;6.04;100.00
31911;BME280;18457;52.432;16.914;2022-11-27T04:03:23;101853.77;;;6.03;100.00
31911;BME280;18457;52.432;16.914;2022-11-27T04:05:56;101853.13;;;5.96;100.00
31911;BME280;18457;52.432;16.914;2022-11-27T04:08:28;101853.04;;;6.02;100.00
31911;BME280;18457;52.432;16.914;2022-11-27T04:11:00;101859.20;;;6.05;100.00
31911;BME280;18457;52.432;16.914;2022-11-27T04:13:31;101859.70;;;6.03;100.00
31911;BME280;18457;52.432;16.914;2022-11-27T04:16:04;101858.09;;;6.04;100.00
31911;BME280;18457;52.432;16.914;2022-11-27T04:18:36;101858.14;;;6.06;100.00
31911;BME280;18457;52.432;16.914;2022-11-27T04:21:08;101857.09;;;6.07;100.00
31911;BME280;18457;52.432;16.914;2022-11-27T04:23:41;101850.31;;;6.09;100.00
31911;BME280;18457;52.432;16.914;2022-11-27T04:26:13;101847.24;;;6.08;100.00
31911;BME280;18457;52.432;16.914;2022-11-27T04:28:45;101839.71;;;6.09;100.00
31911;BME280;18457;52.432;16.914;2022-11-27T04:31:17;101834.15;;;6.09;100.00
31911;BME280;18457;52.432;16.914;2022-11-27T04:33:49;101829.39;;;6.05;100.00
31911;BME280;18457;52.432;16.914;2022-11-27T04:36:21;101825.10;;;6.05;100.00
31911;BME280;18457;52.432;16.914;2022-11-27T04:38:52;101824.97;;;6.08;100.00
31911;BME280;18457;52.432;16.914;2022-11-27T04:41:24;101823.92;;;6.09;100.00
31911;BME280;18457;52.432;16.914;2022-11-27T04:43:56;101827.48;;;6.07;100.00
31911;BME280;18457;52.432;16.914;2022-11-27T04:46:27;101831.52;;;6.02;100.00
31911;BME280;18457;52.432;16.914;2022-11-27T04:48:59;101832.36;;;5.99;100.00
31911;BME280;18457;52.432;16.914;2022-11-27T04:51:31;101830.20;;;5.99;100.00
31911;BME280;18457;52.432;16.914;2022-11-27T04:54:03;101830.43;;;6.02;100.00
31911;BME280;18457;52.432;16.914;2022-11-27T04:56:35;101833.29;;;6.00;100.00
31911;BME280;18457;52.432;16.914;2022-11-27T04:59:07;101838.02;;;6.05;100.00
31911;BME280;18457;52.432;16.914;2022-11-27T05:01:40;101837.70;;;6.08;100.00
31911;BME280;18457;52.432;16.914;2022-11-27T05:04:12;101839.76;;;6.11;100.00
31911;BME280;18457;52.432;16.914;2022-11-27T05:06:44;101839.57;;;6.11;100.00
31911;BME280;18457;52.432;16.914;2022-11-27T05:09:17;101837.42;;;6.11;100.00
31911;BME280;18457;52.432;16.914;2022-11-27T05:11:48;101844.05;;;6.11;100.00
31911;BME280;18457;52.432;16.914;2022-11-27T05:14:20;101844.44;;;6.13;100.00
31911;BME280;18457;52.432;16.914;2022-11-27T05:16:59;101845.36;;;6.14;100.00
31911;BME280;18457;52.432;16.914;2022-11-27T05:19:29;101843.17;;;6.11;100.00
31911;BME280;18457;52.432;16.914;2022-11-27T05:22:02;101842.52;;;6.05;100.00
31911;BME280;18457;52.432;16.914;2022-11-27T05:24:33;101840.69;;;6.03;100.00
31911;BME280;18457;52.432;16.914;2022-11-27T05:27:05;101845.95;;;5.97;100.00
31911;BME280;18457;52.432;16.914;2022-11-27T05:29:37;101849.90;;;5.98;100.00
31911;BME280;18457;52.432;16.914;2022-11-27T05:32:09;101850.02;;;6.04;100.00
31911;BME280;18457;52.432;16.914;2022-11-27T05:34:41;101855.68;;;6.09;100.00
31911;BME280;18457;52.432;16.914;2022-11-27T05:37:13;101852.47;;;6.10;100.00
31911;BME280;18457;52.432;16.914;2022-11-27T05:39:49;101851.01;;;6.09;100.00
31911;BME280;18457;52.432;16.914;2022-11-27T05:42:21;101851.37;;;6.08;100.00
31911;BME280;18457;52.432;16.914;2022-11-27T05:44:53;101852.45;;;6.10;100.00
31911;BME280;18457;52.432;16.914;2022-11-27T05:47:28;101854.30;;;6.13;100.00
31911;BME280;18457;52.432;16.914;2022-11-27T05:50:00;101851.64;;;6.15;100.00
31911;BME280;18457;52.432;16.914;2022-11-27T05:52:31;101852.05;;;6.17;100.00
31911;BME280;18457;52.432;16.914;2022-11-27T05:55:03;101854.21;;;6.18;100.00
31911;BME280;18457;52.432;16.914;2022-11-27T05:57:35;101857.46;;;6.19;100.00
31911;BME280;18457;52.432;16.914;2022-11-27T06:00:10;101853.52;;;6.19;100.00
31911;BME280;18457;52.432;16.914;2022-11-27T06:02:41;101851.35;;;6.18;100.00
31911;BME280;18457;52.432;16.914;2022-11-27T06:05:14;101854.05;;;6.18;100.00
31911;BME280;18457;52.432;16.914;2022-11-27T06:07:46;101852.45;;;6.20;100.00
31911;BME280;18457;52.432;16.914;2022-11-27T06:10:18;101853.69;;;6.19;100.00
31911;BME280;18457;52.432;16.914;2022-11-27T06:12:50;101850.81;;;6.19;100.00
31911;BME280;18457;52.432;16.914;2022-11-27T06:15:21;101850.28;;;6.19;100.00
31911;BME280;18457;52.432;16.914;2022-11-27T06:17:53;101856.23;;;6.21;100.00
31911;BME280;18457;52.432;16.914;2022-11-27T06:20:25;101855.33;;;6.21;100.00
31911;BME280;18457;52.432;16.914;2022-11-27T06:22:57;101855.33;;;6.20;100.00
31911;BME280;18457;52.432;16.914;2022-11-27T06:25:30;101862.33;;;6.20;100.00
31911;BME280;18457;52.432;16.914;2022-11-27T06:28:02;101857.23;;;6.17;100.00
31911;BME280;18457;52.432;16.914;2022-11-27T06:30:35;101856.04;;;6.20;100.00
31911;BME280;18457;52.432;16.914;2022-11-27T06:33:07;101863.23;;;6.22;100.00
31911;BME280;18457;52.432;16.914;2022-11-27T06:35:39;101863.23;;;6.21;100.00
31911;BME280;18457;52.432;16.914;2022-11-27T06:38:11;101861.58;;;6.08;100.00
31911;BME280;18457;52.432;16.914;2022-11-27T06:40:43;101860.09;;;6.05;100.00
31911;BME280;18457;52.432;16.914;2022-11-27T06:43:15;101867.45;;;5.95;100.00
31911;BME280;18457;52.432;16.914;2022-11-27T06:45:55;101872.30;;;5.95;100.00
31911;BME280;18457;52.432;16.914;2022-11-27T06:48:27;101873.04;;;6.06;100.00
31911;BME280;18457;52.432;16.914;2022-11-27T06:51:01;101873.52;;;6.12;100.00
31911;BME280;18457;52.432;16.914;2022-11-27T06:53:34;101871.77;;;6.16;100.00
31911;BME280;18457;52.432;16.914;2022-11-27T06:56:08;101875.39;;;6.19;100.00
31911;BME280;18457;52.432;16.914;2022-11-27T06:58:41;101874.17;;;6.20;100.00
31911;BME280;18457;52.432;16.914;2022-11-27T07:01:15;101875.85;;;6.24;100.00
31911;BME280;18457;52.432;16.914;2022-11-27T07:03:47;101871.20;;;6.26;100.00
31911;BME280;18457;52.432;16.914;2022-11-27T07:06:21;101870.89;;;6.27;100.00
31911;BME280;18457;52.432;16.914;2022-11-27T07:08:55;101866.70;;;6.24;100.00
31911;BME280;18457;52.432;16.914;2022-11-27T07:11:28;101868.83;;;6.23;100.00
31911;BME280;18457;52.432;16.914;2022-11-27T07:14:03;101858.84;;;6.27;100.00
31911;BME280;18457;52.432;16.914;2022-11-27T07:16:36;101866.48;;;6.32;100.00
31911;BME280;18457;52.432;16.914;2022-11-27T07:19:09;101865.08;;;6.35;100.00
31911;BME280;18457;52.432;16.914;2022-11-27T07:21:41;101862.39;;;6.35;100.00
31911;BME280;18457;52.432;16.914;2022-11-27T07:24:13;101863.46;;;6.35;100.00
31911;BME280;18457;52.432;16.914;2022-11-27T07:26:45;101864.20;;;6.35;100.00
31911;BME280;18457;52.432;16.914;2022-11-27T07:29:17;101866.24;;;6.39;100.00
31911;BME280;18457;52.432;16.914;2022-11-27T07:31:49;101861.05;;;6.41;100.00
31911;BME280;18457;52.432;16.914;2022-11-27T07:34:21;101855.86;;;6.41;100.00
31911;BME280;18457;52.432;16.914;2022-11-27T07:36:53;101850.67;;;6.42;100.00
31911;BME280;18457;52.432;16.914;2022-11-27T07:39:25;101853.02;;;6.44;100.00
31911;BME280;18457;52.432;16.914;2022-11-27T07:42:17;101853.75;;;6.45;100.00
31911;BME280;18457;52.432;16.914;2022-11-27T07:45:11;101852.67;;;6.44;100.00
31911;BME280;18457;52.432;16.914;2022-11-27T07:47:43;101855.24;;;6.48;100.00
31911;BME280;18457;52.432;16.914;2022-11-27T07:50:15;101854.39;;;6.51;100.00
31911;BME280;18457;52.432;16.914;2022-11-27T07:52:47;101856.93;;;6.52;100.00
31911;BME280;18457;52.432;16.914;2022-11-27T07:55:18;101853.55;;;6.54;100.00
31911;BME280;18457;52.432;16.914;2022-11-27T07:57:50;101854.95;;;6.52;100.00
31911;BME280;18457;52.432;16.914;2022-11-27T08:00:24;101853.39;;;6.55;100.00
31911;BME280;18457;52.432;16.914;2022-11-27T08:02:56;101853.60;;;6.57;100.00
31911;BME280;18457;52.432;16.914;2022-11-27T08:05:28;101848.05;;;6.59;100.00
31911;BME280;18457;52.432;16.914;2022-11-27T08:08:01;101852.04;;;6.61;100.00
31911;BME280;18457;52.432;16.914;2022-11-27T08:10:36;101854.27;;;6.66;100.00
31911;BME280;18457;52.432;16.914;2022-11-27T08:13:09;101859.52;;;6.68;100.00
31911;BME280;18457;52.432;16.914;2022-11-27T08:15:42;101860.42;;;6.69;100.00
31911;BME280;18457;52.432;16.914;2022-11-27T08:18:15;101862.59;;;6.70;100.00
31911;BME280;18457;52.432;16.914;2022-11-27T08:20:47;101864.38;;;6.68;100.00
31911;BME280;18457;52.432;16.914;2022-11-27T08:23:19;101864.53;;;6.67;100.00
31911;BME280;18457;52.432;16.914;2022-11-27T08:25:51;101863.13;;;6.70;100.00
31911;BME280;18457;52.432;16.914;2022-11-27T08:28:23;101864.34;;;6.66;100.00
31911;BME280;18457;52.432;16.914;2022-11-27T08:30:59;101866.65;;;6.65;100.00
31911;BME280;18457;52.432;16.914;2022-11-27T08:33:32;101870.82;;;6.67;100.00
31911;BME280;18457;52.432;16.914;2022-11-27T08:36:03;101864.02;;;6.69;100.00
31911;BME280;18457;52.432;16.914;2022-11-27T08:38:39;101864.95;;;6.72;100.00
31911;BME280;18457;52.432;16.914;2022-11-27T08:41:11;101864.06;;;6.73;100.00
31911;BME280;18457;52.432;16.914;2022-11-27T08:43:43;101862.30;;;6.74;100.00
31911;BME280;18457;52.432;16.914;2022-11-27T08:46:15;101865.33;;;6.73;100.00
31911;BME280;18457;52.432;16.914;2022-11-27T08:48:48;101865.05;;;6.77;100.00
31911;BME280;18457;52.432;16.914;2022-11-27T08:51:20;101866.13;;;6.79;100.00
31911;BME280;18457;52.432;16.914;2022-11-27T08:53:55;101863.13;;;6.81;100.00
31911;BME280;18457;52.432;16.914;2022-11-27T08:56:27;101865.82;;;6.81;100.00
31911;BME280;18457;52.432;16.914;2022-11-27T08:59:00;101864.98;;;6.86;100.00
31911;BME280;18457;52.432;16.914;2022-11-27T09:01:33;101866.27;;;6.88;100.00
31911;BME280;18457;52.432;16.914;2022-11-27T09:04:06;101862.70;;;6.89;100.00
31911;BME280;18457;52.432;16.914;2022-11-27T09:06:41;101863.02;;;6.87;100.00
31911;BME280;18457;52.432;16.914;2022-11-27T09:09:13;101858.57;;;6.89;100.00
31911;BME280;18457;52.432;16.914;2022-11-27T09:11:45;101859.34;;;6.92;100.00
31911;BME280;18457;52.432;16.914;2022-11-27T09:14:16;101860.88;;;6.88;100.00
31911;BME280;18457;52.432;16.914;2022-11-27T09:16:49;101859.41;;;6.98;100.00
31911;BME280;18457;52.432;16.914;2022-11-27T09:19:21;101857.08;;;7.76;100.00
31911;BME280;18457;52.432;16.914;2022-11-27T09:21:53;101855.71;;;7.16;100.00
31911;BME280;18457;52.432;16.914;2022-11-27T09:24:25;101854.66;;;7.18;100.00
31911;BME280;18457;52.432;16.914;2022-11-27T09:26:57;101854.34;;;7.35;100.00
31911;BME280;18457;52.432;16.914;2022-11-27T09:29:29;101852.21;;;7.39;100.00
31911;BME280;18457;52.432;16.914;2022-11-27T09:32:01;101853.89;;;7.43;100.00
31911;BME280;18457;52.432;16.914;2022-11-27T09:34:34;101852.97;;;7.40;100.00
31911;BME280;18457;52.432;16.914;2022-11-27T09:37:11;101851.63;;;7.49;100.00
31911;BME280;18457;52.432;16.914;2022-11-27T09:39:44;101848.87;;;7.30;100.00
31911;BME280;18457;52.432;16.914;2022-11-27T09:42:25;101844.29;;;7.22;100.00
31911;BME280;18457;52.432;16.914;2022-11-27T09:45:03;101840.50;;;7.22;100.00
31911;BME280;18457;52.432;16.914;2022-11-27T09:47:40;101836.67;;;7.31;100.00
31911;BME280;18457;52.432;16.914;2022-11-27T09:50:14;101840.10;;;7.33;100.00
31911;BME280;18457;52.432;16.914;2022-11-27T09:52:51;101840.30;;;7.33;100.00
31911;BME280;18457;52.432;16.914;2022-11-27T09:55:27;101839.61;;;7.37;100.00
31911;BME280;18457;52.432;16.914;2022-11-27T09:58:09;101831.89;;;7.36;100.00
31911;BME280;18457;52.432;16.914;2022-11-27T10:00:45;101824.52;;;7.36;100.00
31911;BME280;18457;52.432;16.914;2022-11-27T10:03:22;101828.77;;;7.32;100.00
31911;BME280;18457;52.432;16.914;2022-11-27T10:06:02;101826.84;;;7.36;100.00
31911;BME280;18457;52.432;16.914;2022-11-27T10:08:44;101827.25;;;7.41;100.00
31911;BME280;18457;52.432;16.914;2022-11-27T10:11:26;101824.55;;;7.40;100.00
31911;BME280;18457;52.432;16.914;2022-11-27T10:14:20;101829.64;;;7.44;100.00
31911;BME280;18457;52.432;16.914;2022-11-27T10:17:01;101819.86;;;7.55;100.00
31911;BME280;18457;52.432;16.914;2022-11-27T10:19:44;101809.61;;;7.55;100.00
31911;BME280;18457;52.432;16.914;2022-11-27T10:22:22;101805.86;;;7.58;100.00
31911;BME280;18457;52.432;16.914;2022-11-27T10:25:02;101803.26;;;7.65;100.00
31911;BME280;18457;52.432;16.914;2022-11-27T10:27:47;101802.23;;;7.70;100.00
31911;BME280;18457;52.432;16.914;2022-11-27T10:30:22;101802.89;;;7.64;100.00
31911;BME280;18457;52.432;16.914;2022-11-27T10:32:56;101801.64;;;7.65;100.00
31911;BME280;18457;52.432;16.914;2022-11-27T10:35:30;101799.83;;;7.64;99.97
31911;BME280;18457;52.432;16.914;2022-11-27T10:38:08;101797.99;;;7.61;99.47
31911;BME280;18457;52.432;16.914;2022-11-27T10:40:44;101801.84;;;7.51;99.32
31911;BME280;18457;52.432;16.914;2022-11-27T10:43:21;101799.85;;;7.34;99.37
31911;BME280;18457;52.432;16.914;2022-11-27T10:45:56;101798.96;;;7.35;99.73
31911;BME280;18457;52.432;16.914;2022-11-27T10:48:30;101799.74;;;7.40;99.38
31911;BME280;18457;52.432;16.914;2022-11-27T10:51:07;101789.73;;;7.44;99.21
31911;BME280;18457;52.432;16.914;2022-11-27T10:53:42;101787.59;;;7.45;98.81
31911;BME280;18457;52.432;16.914;2022-11-27T10:56:38;101785.94;;;7.43;99.25
31911;BME280;18457;52.432;16.914;2022-11-27T10:59:17;101790.40;;;7.40;99.90
31911;BME280;18457;52.432;16.914;2022-11-27T11:01:51;101788.13;;;7.47;99.37
31911;BME280;18457;52.432;16.914;2022-11-27T11:04:28;101787.81;;;7.51;99.21
31911;BME280;18457;52.432;16.914;2022-11-27T11:07:24;101787.69;;;7.56;98.97
31911;BME280;18457;52.432;16.914;2022-11-27T11:09:57;101785.55;;;7.58;98.84
31911;BME280;18457;52.432;16.914;2022-11-27T11:12:29;101786.65;;;7.59;98.64
31911;BME280;18457;52.432;16.914;2022-11-27T11:15:09;101783.04;;;7.59;98.03
31911;BME280;18457;52.432;16.914;2022-11-27T11:17:41;101781.95;;;7.58;97.96
31911;BME280;18457;52.432;16.914;2022-11-27T11:22:54;101775.27;;;7.56;96.77
31911;BME280;18457;52.432;16.914;2022-11-27T11:25:26;101780.06;;;7.48;97.29
31911;BME280;18457;52.432;16.914;2022-11-27T11:27:58;101779.23;;;7.55;96.64
31911;BME280;18457;52.432;16.914;2022-11-27T11:30:31;101782.85;;;7.57;96.02
31911;BME280;18457;52.432;16.914;2022-11-27T11:33:04;101776.80;;;7.63;95.60
31911;BME280;18457;52.432;16.914;2022-11-27T11:35:38;101774.70;;;7.68;95.16
31911;BME280;18457;52.432;16.914;2022-11-27T11:38:17;101774.68;;;7.68;95.18
31911;BME280;18457;52.432;16.914;2022-11-27T11:41:00;101773.83;;;7.72;95.21
31911;BME280;18457;52.432;16.914;2022-11-27T11:43:35;101770.44;;;7.75;94.81
31911;BME280;18457;52.432;16.914;2022-11-27T11:46:17;101769.04;;;7.80;94.39
31911;BME280;18457;52.432;16.914;2022-11-27T11:48:58;101765.48;;;7.85;93.64
31911;BME280;18457;52.432;16.914;2022-11-27T11:51:43;101765.34;;;7.87;92.62
31911;BME280;18457;52.432;16.914;2022-11-27T11:54:33;101767.89;;;7.91;92.28
31911;BME280;18457;52.432;16.914;2022-11-27T12:00:07;101764.19;;;7.80;93.77
31911;BME280;18457;52.432;16.914;2022-11-27T12:02:59;101769.39;;;7.78;94.13
31911;BME280;18457;52.432;16.914;2022-11-27T12:05:45;101766.49;;;7.78;94.18
31911;BME280;18457;52.432;16.914;2022-11-27T12:08:38;101763.29;;;7.80;93.64
31911;BME280;18457;52.432;16.914;2022-11-27T12:11:16;101759.38;;;7.86;93.00
31911;BME280;18457;52.432;16.914;2022-11-27T12:14:04;101756.20;;;7.72;93.05
31911;BME280;18457;52.432;16.914;2022-11-27T12:16:52;101754.02;;;7.71;93.09
31911;BME280;18457;52.432;16.914;2022-11-27T12:19:46;101752.47;;;7.77;92.68
31911;BME280;18457;52.432;16.914;2022-11-27T12:22:37;101747.65;;;7.81;92.70
31911;BME280;18457;52.432;16.914;2022-11-27T12:25:22;101744.98;;;7.85;92.50
31911;BME280;18457;52.432;16.914;2022-11-27T12:28:10;101746.42;;;7.65;92.75
31911;BME280;18457;52.432;16.914;2022-11-27T12:30:53;101745.69;;;7.63;93.03
31911;BME280;18457;52.432;16.914;2022-11-27T12:33:42;101748.45;;;7.70;92.56
31911;BME280;18457;52.432;16.914;2022-11-27T12:36:25;101745.26;;;7.74;92.13
31911;BME280;18457;52.432;16.914;2022-11-27T12:39:16;101744.66;;;7.69;91.88
31911;BME280;18457;52.432;16.914;2022-11-27T12:42:10;101744.14;;;7.70;91.71
31911;BME280;18457;52.432;16.914;2022-11-27T12:44:58;101745.19;;;7.67;91.56
31911;BME280;18457;52.432;16.914;2022-11-27T12:47:37;101745.21;;;7.70;91.55
31911;BME280;18457;52.432;16.914;2022-11-27T12:50:19;101743.96;;;7.71;91.44
31911;BME280;18457;52.432;16.914;2022-11-27T12:52:59;101744.18;;;7.58;92.20
31911;BME280;18457;52.432;16.914;2022-11-27T12:55:36;101739.89;;;7.58;92.79
31911;BME280;18457;52.432;16.914;2022-11-27T12:58:23;101739.98;;;7.52;92.80
31911;BME280;18457;52.432;16.914;2022-11-27T13:01:05;101736.02;;;7.50;93.07
31911;BME280;18457;52.432;16.914;2022-11-27T13:03:43;101728.94;;;7.43;93.79
31911;BME280;18457;52.432;16.914;2022-11-27T13:06:22;101721.71;;;7.40;93.77
31911;BME280;18457;52.432;16.914;2022-11-27T13:09:00;101723.98;;;7.50;94.41
31911;BME280;18457;52.432;16.914;2022-11-27T13:11:37;101724.98;;;7.61;93.38
31911;BME280;18457;52.432;16.914;2022-11-27T13:14:13;101720.75;;;7.69;92.64
31911;BME280;18457;52.432;16.914;2022-11-27T13:16:51;101717.74;;;7.76;91.93
31911;BME280;18457;52.432;16.914;2022-11-27T13:19:28;101712.70;;;7.77;91.86
31911;BME280;18457;52.432;16.914;2022-11-27T13:22:05;101711.27;;;7.78;91.62
31911;BME280;18457;52.432;16.914;2022-11-27T13:24:39;101710.95;;;7.82;91.70
31911;BME280;18457;52.432;16.914;2022-11-27T13:27:16;101715.63;;;7.80;91.88
31911;BME280;18457;52.432;16.914;2022-11-27T13:29:51;101716.18;;;7.62;92.39
31911;BME280;18457;52.432;16.914;2022-11-27T13:32:27;101715.95;;;7.57;93.16